TimeMDT,TemperatureF,Dew PointF,Humidity,Sea Level PressureIn,VisibilityMPH,Wind Direction,Wind SpeedMPH,Gust SpeedMPH,PrecipitationIn,Events,Conditions,WindDirDegrees,DateUTC
12:55 AM,29.5,29.5,100,30.02,10.0,SSE,6.9,-,N/A,,Clear,150,2012-10-24 06:55:00
1:55 AM,27.7,27.7,100,30.03,10.0,Calm,Calm,-,N/A,,Clear,0,2012-10-24 07:55:00
2:06 AM,28.4,28.4,100,30.03,10.0,East,4.6,-,N/A,,Mostly Cloudy,80,2012-10-24 08:06:00
2:13 AM,28.4,28.4,100,30.02,10.0,East,4.6,-,N/A,,Scattered Clouds,90,2012-10-24 08:13:00
2:55 AM,27.9,27.9,100,30.02,10.0,East,5.8,-,N/A,,Clear,90,2012-10-24 08:55:00
3:55 AM,27.1,27.1,100,30.02,10.0,East,8.1,-,N/A,,Clear,90,2012-10-24 09:55:00
4:55 AM,27.0,27.0,100,30.02,10.0,ESE,9.2,-,N/A,,Clear,110,2012-10-24 10:55:00
5:55 AM,26.4,26.4,100,30.03,10.0,ESE,9.2,-,N/A,,Clear,110,2012-10-24 11:55:00
6:55 AM,28.2,28.2,100,30.04,10.0,ESE,12.7,-,N/A,,Clear,110,2012-10-24 12:55:00
7:55 AM,27.9,27.9,100,30.04,10.0,ESE,11.5,-,N/A,,Clear,120,2012-10-24 13:55:00
8:55 AM,26.6,26.6,100,30.05,10.0,ESE,11.5,-,N/A,,Clear,110,2012-10-24 14:55:00
9:55 AM,31.8,31.8,100,30.05,10.0,ESE,17.3,-,N/A,,Mostly Cloudy,120,2012-10-24 15:55:00
10:55 AM,35.6,31.1,84,30.05,10.0,East,20.7,-,N/A,,Mostly Cloudy,100,2012-10-24 16:55:00
11:55 AM,37.4,29.5,73,30.05,10.0,East,17.3,-,N/A,,Overcast,100,2012-10-24 17:55:00
12:19 PM,39.2,32.0,75,30.01,10.0,ESE,16.1,-,N/A,,Overcast,120,2012-10-24 18:19:00
12:55 PM,42.3,29.8,61,30.06,10.0,ESE,17.3,-,N/A,,Overcast,120,2012-10-24 18:55:00
1:11 PM,42.8,30.2,61,30.07,10.0,ESE,11.5,-,N/A,,Overcast,120,2012-10-24 19:11:00
1:17 PM,42.8,30.2,61,30.02,10.0,SE,10.4,-,N/A,,Overcast,130,2012-10-24 19:17:00
1:40 PM,42.8,28.4,57,30.06,10.0,SSE,9.2,-,N/A,,Overcast,150,2012-10-24 19:40:00
1:55 PM,42.4,28.8,58,30.06,10.0,ESE,8.1,-,N/A,,Overcast,110,2012-10-24 19:55:00
2:21 PM,42.8,30.2,61,30.01,10.0,ENE,4.6,-,N/A,,Overcast,70,2012-10-24 20:21:00
2:55 PM,42.6,30.7,63,30.06,8.0,Variable,3.5,-,0.00,Rain,Light Rain,0,2012-10-24 20:55:00
3:24 PM,42.8,35.6,76,30.07,8.0,East,9.2,-,N/A,,Light Drizzle,100,2012-10-24 21:24:00
3:55 PM,39.4,38.7,97,30.08,9.0,East,8.1,-,0.03,Rain,Light Rain,100,2012-10-24 21:55:00
4:02 PM,39.2,39.2,100,30.02,9.0,East,8.1,-,N/A,Rain,Light Rain,90,2012-10-24 22:02:00
4:55 PM,39.7,39.7,100,30.09,10.0,East,5.8,-,0.01,,Light Drizzle,90,2012-10-24 22:55:00
5:55 PM,39.6,39.6,100,30.10,10.0,ENE,6.9,-,0.00,,Mostly Cloudy,60,2012-10-24 23:55:00
6:31 PM,39.2,39.2,100,30.05,10.0,East,2.3,-,N/A,,Mostly Cloudy,90,2012-10-25 00:31:00
6:55 PM,39.4,39.4,100,30.12,10.0,East,3.5,-,N/A,,Overcast,80,2012-10-25 00:55:00
7:10 PM,39.2,39.2,100,30.12,10.0,East,4.6,-,N/A,,Overcast,90,2012-10-25 01:10:00
7:25 PM,39.2,39.2,100,30.12,10.0,East,5.8,-,N/A,,Overcast,90,2012-10-25 01:25:00
7:36 PM,39.2,39.2,100,30.12,10.0,East,4.6,-,N/A,,Overcast,90,2012-10-25 01:36:00
7:55 PM,38.1,38.1,100,30.12,10.0,East,4.6,-,N/A,,Overcast,90,2012-10-25 01:55:00
7:59 PM,37.4,37.4,100,30.14,10.0,ENE,4.6,-,N/A,,Overcast,70,2012-10-25 01:59:00
8:55 PM,35.6,35.6,100,30.15,10.0,Calm,Calm,-,N/A,,Mostly Cloudy,0,2012-10-25 02:55:00
9:55 PM,34.7,34.7,100,30.15,10.0,Calm,Calm,-,0.00,,Light Drizzle,0,2012-10-25 03:55:00
10:55 PM,33.1,33.1,100,30.16,10.0,ENE,4.6,-,0.00,,Drizzle,60,2012-10-25 04:55:00
11:55 PM,31.6,31.6,100,30.18,10.0,NNE,3.5,-,0.00,,Freezing Rain,20,2012-10-25 05:55:00